createdAt,value
2019-03-24T00:05:22.702Z,63.87
2019-03-24T00:08:11.200Z,71.93
2019-03-24T00:10:59.568Z,63.87
2019-03-24T00:13:47.881Z,64.33
2019-03-24T00:16:36.165Z,70.00
2019-03-24T00:19:24.478Z,63.27
2019-03-24T00:22:12.852Z,71.57
2019-03-24T00:25:01.170Z,59.13
2019-03-24T00:27:49.557Z,60.47
2019-03-24T00:30:37.845Z,54.97
2019-03-24T00:33:18.457Z,53.30
2019-03-24T00:35:58.985Z,55.50
2019-03-24T00:38:40.173Z,66.03
2019-03-24T00:41:21.269Z,60.20
2019-03-24T00:44:01.908Z,57.33
2019-03-24T00:46:42.566Z,66.43
2019-03-24T00:49:23.280Z,64.50
2019-03-24T00:52:03.920Z,60.70
2019-03-24T00:54:44.754Z,65.40
2019-03-24T00:57:25.258Z,68.83
2019-03-24T01:00:06.019Z,71.47
2019-03-24T01:02:46.694Z,60.87
2019-03-24T01:05:27.378Z,65.13
2019-03-24T01:08:08.308Z,76.13
2019-03-24T01:10:48.683Z,63.23
2019-03-24T01:13:29.093Z,61.53
2019-03-24T01:16:09.541Z,63.43
2019-03-24T01:18:50.232Z,65.30
2019-03-24T01:21:31.046Z,60.47
2019-03-24T01:24:11.607Z,63.10
2019-03-24T01:26:52.248Z,71.40
2019-03-24T01:29:32.834Z,69.30
2019-03-24T01:32:13.357Z,60.47
2019-03-24T01:34:54.371Z,57.67
2019-03-24T01:37:34.847Z,68.27
2019-03-24T01:40:15.342Z,60.07
2019-03-24T01:42:55.961Z,59.07
2019-03-24T01:45:36.895Z,58.83
2019-03-24T01:48:17.765Z,60.23
2019-03-24T01:50:58.421Z,68.47
2019-03-24T01:53:39.138Z,52.77
2019-03-24T01:56:19.778Z,60.90
2019-03-24T01:59:00.413Z,58.63
2019-03-24T02:01:41.118Z,64.00
2019-03-24T02:04:21.521Z,57.20
2019-03-24T02:07:02.290Z,60.17
2019-03-24T02:09:42.947Z,62.40
2019-03-24T02:12:23.833Z,61.67
2019-03-24T02:15:04.534Z,62.03
2019-03-24T02:17:45.158Z,55.90
2019-03-24T02:20:25.785Z,53.87
2019-03-24T02:23:06.561Z,52.83
2019-03-24T02:25:47.341Z,63.57
2019-03-24T02:28:28.039Z,57.60
2019-03-24T02:31:08.778Z,65.53
2019-03-24T02:33:49.374Z,67.73
2019-03-24T02:36:30.163Z,63.43
2019-03-24T02:39:10.652Z,52.50
2019-03-24T02:41:51.452Z,56.13
2019-03-24T02:44:32.129Z,57.83
2019-03-24T02:47:12.653Z,55.90
2019-03-24T02:49:53.188Z,54.33
2019-03-24T02:52:33.897Z,59.60
2019-03-24T02:55:14.530Z,58.90
2019-03-24T02:57:55.279Z,59.97
2019-03-24T03:00:36.074Z,62.40
2019-03-24T03:03:16.847Z,56.43
2019-03-24T03:05:57.439Z,64.40
2019-03-24T03:08:38.178Z,70.13
2019-03-24T03:11:18.595Z,63.27
2019-03-24T03:13:58.862Z,63.87
2019-03-24T03:16:39.609Z,64.70
2019-03-24T03:19:20.171Z,56.53
2019-03-24T03:22:00.517Z,67.83
2019-03-24T03:24:41.063Z,58.57
2019-03-24T03:27:21.884Z,66.10
2019-03-24T03:30:02.401Z,70.27
2019-03-24T03:32:43.005Z,63.10
2019-03-24T03:35:23.716Z,59.70
2019-03-24T03:38:04.305Z,61.83
2019-03-24T03:40:45.104Z,59.60
2019-03-24T03:43:25.536Z,64.20
2019-03-24T03:46:06.656Z,65.07
2019-03-24T03:48:47.296Z,66.90
2019-03-24T03:51:28.048Z,55.57
2019-03-24T03:54:08.823Z,50.87
2019-03-24T03:56:49.463Z,53.93
2019-03-24T04:35:25.134Z,61.03
2019-03-24T04:38:05.832Z,53.57
2019-03-24T05:04:47.325Z,74.07
2019-03-24T06:03:57.194Z,52.03
2019-03-24T06:06:37.842Z,48.93
2019-03-24T06:09:18.736Z,52.70
2019-03-24T07:29:38.596Z,37.37
2019-03-24T07:32:19.301Z,42.10
2019-03-24T08:31:33.353Z,48.83
2019-03-24T08:43:24.317Z,50.83
2019-03-24T09:09:53.474Z,48.95
2019-03-24T09:12:34.166Z,51.25
2019-03-24T09:36:20.670Z,48.92
2019-03-24T10:03:03.872Z,43.60
2019-03-24T10:05:44.617Z,42.75
2019-03-24T10:38:09.776Z,48.25
2019-03-24T10:58:57.061Z,51.08
2019-03-24T11:10:47.696Z,47.17
2019-03-24T11:34:20.817Z,47.38
2019-03-24T12:12:56.334Z,37.13
2019-03-24T12:30:29.363Z,36.53
2019-03-24T12:39:21.430Z,35.92
2019-03-24T13:00:06.466Z,33.60
2019-03-24T13:23:52.638Z,26.48
2019-03-24T13:50:31.060Z,31.40
2019-03-24T13:58:59.704Z,33.45
2019-03-24T14:22:31.065Z,43.25
2019-03-24T15:16:02.079Z,35.30
2019-03-24T15:39:35.743Z,34.67
2019-03-24T15:42:13.945Z,30.40
2019-03-24T16:20:51.006Z,35.10
2019-03-24T16:38:23.266Z,39.70
2019-03-24T16:41:03.800Z,41.50
2019-03-24T17:01:40.282Z,50.90
2019-03-24T17:34:06.947Z,54.80
2019-03-24T18:27:38.374Z,62.33
2019-03-24T19:15:04.658Z,62.00
2019-03-24T20:26:14.949Z,75.07
2019-03-24T20:46:48.242Z,84.00
2019-03-24T21:43:14.588Z,89.40
2019-03-24T22:10:00.340Z,91.87
2019-03-24T22:24:49.446Z,105.40
2019-03-24T23:30:12.766Z,109.77
